Airfield :
LOGIN :

Register | Disclaimer

   EN    FR    IT 

 










Legend :    VFR   Marginal VFR   IFR   Intensive IFR   Very Intensive IFR
Visi :
Ceiling :
>= 8 km
>= 3000ft
5 to 8 km
1000 to 3000 ft
1500m to 5 km
500 to 1000 ft
800 to 1500m
200 to 500 ft
< 800m
< 200 ft
Symbols :   Thunderstorms  Fog  Heavy snow  Heavy precipitations  Wind > 20 kt
SIGMETs :     Misc.  Thunderstorms  Icing  Turbulence  Mountain Waves  Volcanic Ashes







- Airport Elevation : 49 ft
- IATA code : GLZ


EHGR - Gilze-Rijen Airbase

CURRENT METAR :
  • 160155Z AUTO 19007KT 150V230 9999 NCD 15/14 Q1017 BLU

EXPIRED METARs :
  • 160125Z AUTO 19006KT 150V230 9999 NCD 15/14 Q1017 BLU
  • 160055Z AUTO 19006KT 170V230 9999 NCD 16/14 Q1017 BLU
  • 160025Z AUTO 20006KT 170V250 9999 FEW032 16/14 Q1017 BLU
  • 152355Z AUTO 20007KT 150V240 9999 FEW031 17/14 Q1017 BLU
  • 152325Z AUTO 20007KT 9999 NCD 16/14 Q1017 BLU

TAF TAF EHGR
Valid from the 15 at 17:00 until the 16 at 05:00 UTC


151623Z 1517/1605 23008KT 9999 SCT025 BKN035
BECMG 1519/1521 20004KT
No reported NOTAMs for that airfield.



MET'MAP, your aeronautical weather chart ! - Copyright ORBIFLY December 2007 - Disclaimer

ORBIFLY MET'MAP TEAM :

Programming & Development : Alexandra Zaïnal
Concept & Development : Baudouin d'Aumeries
Co-Development & Prog : Marc-Olivier Méhu
Technical & hardware support : Manuel Goepfert

Contact : metmap@orbifly.com




SOURCES & CREDITS :

   NOAA